createdAt,value
2022-10-21T00:10:23.788Z,14.80
2022-10-21T00:15:23.734Z,14.32
2022-10-21T00:25:23.480Z,14.44
2022-10-21T00:30:23.556Z,14.67
2022-10-21T00:35:23.289Z,14.78
2022-10-21T00:40:23.250Z,14.80
2022-10-21T00:45:23.434Z,14.87
2022-10-21T00:50:23.151Z,14.56
2022-10-21T00:55:23.139Z,14.25
2022-10-21T01:00:26.031Z,14.17
2022-10-21T01:05:22.887Z,14.04
2022-10-21T01:10:22.993Z,14.27
2022-10-21T01:15:22.837Z,14.32
2022-10-21T01:20:22.824Z,14.64
2022-10-21T01:25:22.824Z,14.83
2022-10-21T01:30:22.569Z,14.75
2022-10-21T01:35:22.578Z,14.65
2022-10-21T01:40:29.979Z,14.98
2022-10-21T01:45:29.879Z,14.94
2022-10-21T01:50:22.333Z,14.54
2022-10-21T01:55:22.289Z,14.69
2022-10-21T02:05:22.119Z,14.14
2022-10-21T02:10:22.284Z,13.96
2022-10-21T02:15:22.004Z,13.92
2022-10-21T02:20:22.133Z,13.51
2022-10-21T02:25:21.884Z,13.02
2022-10-21T02:30:22.071Z,13.18
2022-10-21T02:35:21.843Z,13.04
2022-10-21T02:40:21.988Z,13.18
2022-10-21T02:45:21.550Z,12.99
2022-10-21T02:50:21.706Z,12.71
2022-10-21T02:55:21.459Z,12.74
2022-10-21T03:00:24.471Z,12.48
2022-10-21T03:05:21.383Z,12.75
2022-10-21T03:10:21.408Z,13.02
2022-10-21T03:15:21.439Z,13.04
2022-10-21T03:20:21.188Z,13.04
2022-10-21T03:25:21.039Z,12.87
2022-10-21T03:30:21.044Z,12.63
2022-10-21T03:35:21.044Z,12.70
2022-10-21T03:40:21.346Z,12.82
2022-10-21T03:45:20.830Z,12.67
2022-10-21T03:50:23.716Z,13.21
2022-10-21T03:55:21.797Z,13.27
2022-10-21T04:00:26.044Z,13.30
2022-10-21T04:05:20.597Z,12.51
2022-10-21T04:10:20.523Z,12.89
2022-10-21T04:15:20.815Z,13.04
2022-10-21T04:20:20.624Z,12.82
2022-10-21T04:25:20.299Z,12.88
2022-10-21T04:30:20.390Z,12.44
2022-10-21T04:35:20.154Z,12.15
2022-10-21T04:40:28.710Z,12.48
2022-10-21T04:45:20.045Z,11.85
2022-10-21T04:50:28.302Z,11.93
2022-10-21T04:58:09.925Z,11.71
2022-10-21T05:05:01.006Z,12.27
2022-10-21T05:10:00.699Z,12.37
2022-10-21T05:15:00.851Z,11.89
2022-10-21T05:20:00.609Z,11.86
2022-10-21T05:25:00.584Z,11.89
2022-10-21T05:30:00.527Z,12.41
2022-10-21T05:35:00.374Z,12.20
2022-10-21T05:40:00.344Z,12.04
2022-10-21T05:45:00.371Z,11.61
2022-10-21T05:50:00.148Z,11.35
2022-10-21T05:55:03.164Z,11.46
2022-10-21T06:00:00.229Z,11.21
2022-10-21T06:05:00.140Z,11.47
2022-10-21T06:09:59.909Z,11.16
2022-10-21T06:14:59.949Z,11.13
2022-10-21T06:21:28.404Z,11.68
2022-10-21T06:26:30.049Z,11.83
2022-10-21T06:31:28.297Z,11.82
2022-10-21T06:36:27.960Z,11.44
2022-10-21T06:41:35.664Z,12.21
2022-10-21T06:46:28.029Z,12.13
2022-10-21T06:51:27.919Z,12.13
2022-10-21T06:56:27.705Z,12.48
2022-10-21T07:01:34.709Z,12.49
2022-10-21T07:06:28.902Z,12.93
2022-10-21T07:11:30.578Z,13.43
2022-10-21T07:16:27.480Z,13.40
2022-10-21T07:21:27.497Z,13.81
2022-10-21T07:26:27.455Z,13.92
2022-10-21T07:31:27.398Z,14.07
2022-10-21T07:36:27.316Z,14.25
2022-10-21T07:41:27.235Z,14.37
2022-10-21T07:47:46.253Z,14.78
2022-10-21T07:53:44.010Z,15.06
2022-10-21T07:58:44.304Z,15.39
2022-10-21T08:03:43.865Z,15.35
2022-10-21T08:08:43.950Z,15.93
2022-10-21T08:13:44.150Z,16.25
2022-10-21T08:18:43.662Z,15.89
2022-10-21T08:23:44.085Z,16.59
2022-10-21T08:28:44.987Z,16.80
2022-10-21T08:37:53.350Z,16.71
2022-10-21T08:49:03.010Z,16.95
2022-10-21T09:00:55.989Z,17.14
2022-10-21T09:05:57.260Z,17.23
2022-10-21T09:10:56.564Z,17.53
2022-10-21T09:15:54.709Z,17.40
2022-10-21T09:31:22.235Z,17.73
2022-10-21T10:05:14.911Z,18.24
2022-10-21T10:38:11.450Z,19.40
2022-10-21T11:36:23.033Z,16.73
2022-10-21T11:41:28.401Z,17.10
2022-10-21T11:46:20.663Z,16.70
2022-10-21T11:51:20.228Z,16.59
2022-10-21T11:57:38.365Z,17.11
2022-10-21T12:02:38.730Z,17.15
2022-10-21T12:07:46.374Z,16.93
2022-10-21T12:14:19.030Z,17.59
2022-10-21T12:19:18.601Z,17.62
2022-10-21T12:24:18.645Z,17.07
2022-10-21T12:29:18.323Z,17.10
2022-10-21T12:34:18.316Z,16.99
2022-10-21T12:39:18.375Z,16.98
2022-10-21T12:44:26.741Z,16.65
2022-10-21T12:50:46.214Z,17.04
2022-10-21T12:55:53.119Z,17.18
2022-10-21T13:00:53.609Z,17.53
2022-10-21T13:07:10.811Z,17.32
2022-10-21T13:12:10.647Z,16.90
2022-10-21T13:17:10.513Z,17.30
2022-10-21T13:22:10.405Z,17.40
2022-10-21T13:27:10.270Z,17.40
2022-10-21T13:32:10.104Z,17.36
2022-10-21T13:37:10.146Z,17.87
2022-10-21T13:42:15.582Z,17.64
